sensor_id;sensor_type;location;lat;lon;timestamp;P1;durP1;ratioP1;P2;durP2;ratioP2
32292;SDS011;43233;48.608;8.838;2023-04-16T00:00:47;4.67;;;3.77;;
32292;SDS011;43233;48.608;8.838;2023-04-16T00:03:14;3.47;;;3.23;;
32292;SDS011;43233;48.608;8.838;2023-04-16T00:05:40;3.70;;;3.40;;
32292;SDS011;43233;48.608;8.838;2023-04-16T00:08:05;4.23;;;3.83;;
32292;SDS011;43233;48.608;8.838;2023-04-16T00:10:33;4.20;;;3.80;;
32292;SDS011;43233;48.608;8.838;2023-04-16T00:12:59;4.27;;;3.97;;
32292;SDS011;43233;48.608;8.838;2023-04-16T00:15:24;6.03;;;4.37;;
32292;SDS011;43233;48.608;8.838;2023-04-16T00:17:50;7.00;;;4.33;;
32292;SDS011;43233;48.608;8.838;2023-04-16T00:20:18;4.10;;;3.70;;
32292;SDS011;43233;48.608;8.838;2023-04-16T00:22:44;4.37;;;3.97;;
32292;SDS011;43233;48.608;8.838;2023-04-16T00:25:10;4.80;;;4.40;;
32292;SDS011;43233;48.608;8.838;2023-04-16T00:27:35;5.03;;;4.63;;
32292;SDS011;43233;48.608;8.838;2023-04-16T00:30:01;4.70;;;4.30;;
32292;SDS011;43233;48.608;8.838;2023-04-16T00:32:27;4.40;;;4.00;;
32292;SDS011;43233;48.608;8.838;2023-04-16T00:34:54;4.60;;;4.20;;
32292;SDS011;43233;48.608;8.838;2023-04-16T00:37:19;4.67;;;4.20;;
32292;SDS011;43233;48.608;8.838;2023-04-16T00:39:45;4.47;;;4.07;;
32292;SDS011;43233;48.608;8.838;2023-04-16T00:42:11;4.27;;;3.97;;
32292;SDS011;43233;48.608;8.838;2023-04-16T00:44:36;4.07;;;3.77;;
32292;SDS011;43233;48.608;8.838;2023-04-16T00:47:02;4.27;;;3.90;;
32292;SDS011;43233;48.608;8.838;2023-04-16T00:49:28;5.00;;;4.60;;
32292;SDS011;43233;48.608;8.838;2023-04-16T00:51:54;4.90;;;4.40;;
32292;SDS011;43233;48.608;8.838;2023-04-16T00:54:20;5.18;;;4.68;;
32292;SDS011;43233;48.608;8.838;2023-04-16T00:56:47;6.37;;;4.73;;
32292;SDS011;43233;48.608;8.838;2023-04-16T00:59:13;5.63;;;4.00;;
32292;SDS011;43233;48.608;8.838;2023-04-16T01:01:39;4.10;;;3.70;;
32292;SDS011;43233;48.608;8.838;2023-04-16T01:04:05;4.43;;;4.03;;
32292;SDS011;43233;48.608;8.838;2023-04-16T01:06:31;4.60;;;4.20;;
32292;SDS011;43233;48.608;8.838;2023-04-16T01:08:56;4.40;;;4.00;;
32292;SDS011;43233;48.608;8.838;2023-04-16T01:11:22;4.17;;;3.67;;
32292;SDS011;43233;48.608;8.838;2023-04-16T01:13:48;4.17;;;3.80;;
32292;SDS011;43233;48.608;8.838;2023-04-16T01:16:14;3.90;;;3.60;;
32292;SDS011;43233;48.608;8.838;2023-04-16T01:18:39;4.07;;;3.80;;
32292;SDS011;43233;48.608;8.838;2023-04-16T01:21:05;4.53;;;4.13;;
32292;SDS011;43233;48.608;8.838;2023-04-16T01:23:31;4.60;;;4.20;;
32292;SDS011;43233;48.608;8.838;2023-04-16T01:25:59;4.80;;;4.30;;
32292;SDS011;43233;48.608;8.838;2023-04-16T01:28:25;3.67;;;3.40;;
32292;SDS011;43233;48.608;8.838;2023-04-16T01:30:50;4.10;;;3.70;;
32292;SDS011;43233;48.608;8.838;2023-04-16T01:33:16;3.40;;;3.17;;
32292;SDS011;43233;48.608;8.838;2023-04-16T01:35:42;3.13;;;2.93;;
32292;SDS011;43233;48.608;8.838;2023-04-16T01:38:08;3.33;;;3.03;;
32292;SDS011;43233;48.608;8.838;2023-04-16T01:40:35;3.20;;;3.00;;
32292;SDS011;43233;48.608;8.838;2023-04-16T01:43:01;4.20;;;3.67;;
32292;SDS011;43233;48.608;8.838;2023-04-16T01:45:28;3.67;;;3.37;;
32292;SDS011;43233;48.608;8.838;2023-04-16T01:47:55;4.53;;;2.80;;
32292;SDS011;43233;48.608;8.838;2023-04-16T01:50:21;3.17;;;2.97;;
32292;SDS011;43233;48.608;8.838;2023-04-16T01:52:47;3.07;;;2.87;;
32292;SDS011;43233;48.608;8.838;2023-04-16T01:55:13;3.20;;;3.00;;
32292;SDS011;43233;48.608;8.838;2023-04-16T01:57:39;3.13;;;2.93;;
32292;SDS011;43233;48.608;8.838;2023-04-16T02:00:05;3.27;;;2.97;;
32292;SDS011;43233;48.608;8.838;2023-04-16T02:02:32;2.33;;;2.23;;
32292;SDS011;43233;48.608;8.838;2023-04-16T02:04:58;2.40;;;2.30;;
32292;SDS011;43233;48.608;8.838;2023-04-16T02:07:25;2.57;;;2.47;;
32292;SDS011;43233;48.608;8.838;2023-04-16T02:09:51;2.77;;;2.50;;
32292;SDS011;43233;48.608;8.838;2023-04-16T02:12:17;2.60;;;2.40;;
32292;SDS011;43233;48.608;8.838;2023-04-16T02:14:44;2.03;;;1.93;;
32292;SDS011;43233;48.608;8.838;2023-04-16T02:17:10;2.30;;;2.20;;
32292;SDS011;43233;48.608;8.838;2023-04-16T02:19:36;2.10;;;2.00;;
32292;SDS011;43233;48.608;8.838;2023-04-16T02:22:01;2.20;;;2.03;;
32292;SDS011;43233;48.608;8.838;2023-04-16T02:24:30;2.37;;;2.27;;
32292;SDS011;43233;48.608;8.838;2023-04-16T02:26:56;1.50;;;1.50;;
32292;SDS011;43233;48.608;8.838;2023-04-16T02:29:22;1.90;;;1.80;;
32292;SDS011;43233;48.608;8.838;2023-04-16T02:31:50;1.80;;;1.70;;
32292;SDS011;43233;48.608;8.838;2023-04-16T02:34:16;1.77;;;1.77;;
32292;SDS011;43233;48.608;8.838;2023-04-16T02:36:41;2.00;;;1.90;;
32292;SDS011;43233;48.608;8.838;2023-04-16T02:39:07;1.87;;;1.77;;
32292;SDS011;43233;48.608;8.838;2023-04-16T02:41:33;2.03;;;1.93;;
32292;SDS011;43233;48.608;8.838;2023-04-16T02:43:58;2.10;;;2.00;;
32292;SDS011;43233;48.608;8.838;2023-04-16T02:46:24;2.20;;;2.10;;
32292;SDS011;43233;48.608;8.838;2023-04-16T02:48:51;1.93;;;1.83;;
32292;SDS011;43233;48.608;8.838;2023-04-16T02:51:17;2.47;;;2.30;;
32292;SDS011;43233;48.608;8.838;2023-04-16T02:53:42;3.67;;;2.40;;
32292;SDS011;43233;48.608;8.838;2023-04-16T02:56:10;4.10;;;2.53;;
32292;SDS011;43233;48.608;8.838;2023-04-16T02:58:36;3.50;;;3.20;;
32292;SDS011;43233;48.608;8.838;2023-04-16T03:01:01;2.60;;;2.50;;
32292;SDS011;43233;48.608;8.838;2023-04-16T03:03:27;2.17;;;2.07;;
32292;SDS011;43233;48.608;8.838;2023-04-16T03:05:53;2.83;;;2.63;;
32292;SDS011;43233;48.608;8.838;2023-04-16T03:08:19;2.57;;;2.40;;
32292;SDS011;43233;48.608;8.838;2023-04-16T03:10:45;3.40;;;3.10;;
32292;SDS011;43233;48.608;8.838;2023-04-16T03:13:10;2.80;;;2.57;;
32292;SDS011;43233;48.608;8.838;2023-04-16T03:15:36;2.50;;;2.37;;
32292;SDS011;43233;48.608;8.838;2023-04-16T03:18:01;3.20;;;3.00;;
32292;SDS011;43233;48.608;8.838;2023-04-16T03:20:27;3.87;;;3.57;;
32292;SDS011;43233;48.608;8.838;2023-04-16T03:22:53;4.07;;;3.63;;
32292;SDS011;43233;48.608;8.838;2023-04-16T03:25:18;5.30;;;3.80;;
32292;SDS011;43233;48.608;8.838;2023-04-16T03:27:44;5.63;;;5.00;;
32292;SDS011;43233;48.608;8.838;2023-04-16T03:30:10;4.03;;;3.70;;
32292;SDS011;43233;48.608;8.838;2023-04-16T03:32:36;5.10;;;4.37;;
32292;SDS011;43233;48.608;8.838;2023-04-16T03:35:03;4.57;;;4.13;;
32292;SDS011;43233;48.608;8.838;2023-04-16T03:37:30;4.87;;;4.43;;
32292;SDS011;43233;48.608;8.838;2023-04-16T03:39:55;5.37;;;4.83;;
32292;SDS011;43233;48.608;8.838;2023-04-16T03:42:21;4.80;;;4.30;;
32292;SDS011;43233;48.608;8.838;2023-04-16T03:44:47;7.37;;;5.60;;
32292;SDS011;43233;48.608;8.838;2023-04-16T03:47:12;5.20;;;4.70;;
32292;SDS011;43233;48.608;8.838;2023-04-16T03:49:38;5.60;;;4.83;;
32292;SDS011;43233;48.608;8.838;2023-04-16T03:52:04;5.40;;;4.90;;
32292;SDS011;43233;48.608;8.838;2023-04-16T03:54:30;6.27;;;5.60;;
32292;SDS011;43233;48.608;8.838;2023-04-16T03:56:55;5.60;;;5.10;;
32292;SDS011;43233;48.608;8.838;2023-04-16T03:59:21;5.03;;;4.50;;
32292;SDS011;43233;48.608;8.838;2023-04-16T04:01:47;6.47;;;5.33;;
32292;SDS011;43233;48.608;8.838;2023-04-16T04:04:12;7.93;;;6.63;;
32292;SDS011;43233;48.608;8.838;2023-04-16T04:06:39;6.13;;;5.53;;
32292;SDS011;43233;48.608;8.838;2023-04-16T04:09:05;8.50;;;5.67;;
32292;SDS011;43233;48.608;8.838;2023-04-16T04:11:31;5.70;;;5.10;;
32292;SDS011;43233;48.608;8.838;2023-04-16T04:13:56;5.60;;;5.10;;
32292;SDS011;43233;48.608;8.838;2023-04-16T04:16:22;7.20;;;5.60;;
32292;SDS011;43233;48.608;8.838;2023-04-16T04:18:47;6.40;;;5.63;;
32292;SDS011;43233;48.608;8.838;2023-04-16T04:21:13;6.30;;;5.23;;
32292;SDS011;43233;48.608;8.838;2023-04-16T04:23:39;5.47;;;4.97;;
32292;SDS011;43233;48.608;8.838;2023-04-16T04:26:06;5.40;;;4.80;;
32292;SDS011;43233;48.608;8.838;2023-04-16T04:28:38;5.50;;;5.00;;
32292;SDS011;43233;48.608;8.838;2023-04-16T04:31:03;5.07;;;4.57;;
32292;SDS011;43233;48.608;8.838;2023-04-16T04:33:29;5.67;;;4.43;;
32292;SDS011;43233;48.608;8.838;2023-04-16T04:35:58;4.97;;;4.30;;
32292;SDS011;43233;48.608;8.838;2023-04-16T04:38:24;5.23;;;4.63;;
32292;SDS011;43233;48.608;8.838;2023-04-16T04:40:50;4.90;;;4.40;;
32292;SDS011;43233;48.608;8.838;2023-04-16T04:43:17;3.73;;;3.43;;
32292;SDS011;43233;48.608;8.838;2023-04-16T04:45:43;4.73;;;4.33;;
32292;SDS011;43233;48.608;8.838;2023-04-16T04:48:09;4.87;;;4.47;;
32292;SDS011;43233;48.608;8.838;2023-04-16T04:50:35;4.77;;;4.27;;
32292;SDS011;43233;48.608;8.838;2023-04-16T04:53:01;5.03;;;4.40;;
32292;SDS011;43233;48.608;8.838;2023-04-16T04:55:28;4.37;;;3.97;;
32292;SDS011;43233;48.608;8.838;2023-04-16T04:57:54;3.93;;;3.63;;
32292;SDS011;43233;48.608;8.838;2023-04-16T05:00:20;4.47;;;4.07;;
32292;SDS011;43233;48.608;8.838;2023-04-16T05:02:45;4.40;;;4.00;;
32292;SDS011;43233;48.608;8.838;2023-04-16T05:05:11;4.47;;;4.07;;
32292;SDS011;43233;48.608;8.838;2023-04-16T05:07:37;5.40;;;4.60;;
32292;SDS011;43233;48.608;8.838;2023-04-16T05:10:02;4.23;;;3.83;;
32292;SDS011;43233;48.608;8.838;2023-04-16T05:12:28;5.13;;;4.63;;
32292;SDS011;43233;48.608;8.838;2023-04-16T05:14:54;5.93;;;4.67;;
32292;SDS011;43233;48.608;8.838;2023-04-16T05:17:19;5.93;;;5.00;;
32292;SDS011;43233;48.608;8.838;2023-04-16T05:19:45;5.57;;;4.90;;
32292;SDS011;43233;48.608;8.838;2023-04-16T05:22:11;7.30;;;6.20;;
32292;SDS011;43233;48.608;8.838;2023-04-16T05:24:37;7.47;;;6.00;;
32292;SDS011;43233;48.608;8.838;2023-04-16T05:27:02;7.37;;;5.97;;
32292;SDS011;43233;48.608;8.838;2023-04-16T05:29:28;8.73;;;6.47;;
32292;SDS011;43233;48.608;8.838;2023-04-16T05:31:54;9.17;;;7.10;;
32292;SDS011;43233;48.608;8.838;2023-04-16T05:34:20;9.80;;;6.80;;
32292;SDS011;43233;48.608;8.838;2023-04-16T05:36:46;9.97;;;7.17;;
32292;SDS011;43233;48.608;8.838;2023-04-16T05:39:11;9.53;;;7.83;;
32292;SDS011;43233;48.608;8.838;2023-04-16T05:41:37;10.63;;;7.80;;
32292;SDS011;43233;48.608;8.838;2023-04-16T05:44:03;10.60;;;7.60;;
32292;SDS011;43233;48.608;8.838;2023-04-16T05:46:28;9.47;;;6.60;;
32292;SDS011;43233;48.608;8.838;2023-04-16T05:48:55;14.73;;;8.80;;
32292;SDS011;43233;48.608;8.838;2023-04-16T05:51:20;13.60;;;8.63;;
32292;SDS011;43233;48.608;8.838;2023-04-16T05:53:48;11.10;;;7.00;;
32292;SDS011;43233;48.608;8.838;2023-04-16T05:56:14;12.07;;;7.63;;
32292;SDS011;43233;48.608;8.838;2023-04-16T05:58:40;11.00;;;8.00;;
32292;SDS011;43233;48.608;8.838;2023-04-16T06:01:05;10.90;;;7.67;;
32292;SDS011;43233;48.608;8.838;2023-04-16T06:03:31;11.00;;;7.60;;
32292;SDS011;43233;48.608;8.838;2023-04-16T06:05:57;12.50;;;7.77;;
32292;SDS011;43233;48.608;8.838;2023-04-16T06:08:22;10.57;;;7.73;;
32292;SDS011;43233;48.608;8.838;2023-04-16T06:10:48;12.40;;;8.97;;
32292;SDS011;43233;48.608;8.838;2023-04-16T06:13:14;11.40;;;7.90;;
32292;SDS011;43233;48.608;8.838;2023-04-16T06:15:40;11.93;;;8.50;;
32292;SDS011;43233;48.608;8.838;2023-04-16T06:18:05;11.83;;;8.60;;
32292;SDS011;43233;48.608;8.838;2023-04-16T06:20:31;12.00;;;8.50;;
32292;SDS011;43233;48.608;8.838;2023-04-16T06:22:57;12.03;;;8.10;;
32292;SDS011;43233;48.608;8.838;2023-04-16T06:25:22;11.33;;;8.33;;
32292;SDS011;43233;48.608;8.838;2023-04-16T06:27:48;12.00;;;8.97;;
32292;SDS011;43233;48.608;8.838;2023-04-16T06:30:14;17.90;;;10.00;;
32292;SDS011;43233;48.608;8.838;2023-04-16T06:32:41;16.60;;;10.23;;
32292;SDS011;43233;48.608;8.838;2023-04-16T06:35:07;17.37;;;11.43;;
32292;SDS011;43233;48.608;8.838;2023-04-16T06:37:33;13.73;;;10.37;;
32292;SDS011;43233;48.608;8.838;2023-04-16T06:39:59;16.03;;;10.60;;
32292;SDS011;43233;48.608;8.838;2023-04-16T06:42:25;15.83;;;10.67;;
32292;SDS011;43233;48.608;8.838;2023-04-16T06:44:51;23.83;;;12.07;;
32292;SDS011;43233;48.608;8.838;2023-04-16T06:47:16;19.33;;;12.20;;
32292;SDS011;43233;48.608;8.838;2023-04-16T06:49:42;23.80;;;14.20;;
32292;SDS011;43233;48.608;8.838;2023-04-16T06:52:08;17.10;;;12.13;;
32292;SDS011;43233;48.608;8.838;2023-04-16T06:54:33;25.13;;;12.70;;
32292;SDS011;43233;48.608;8.838;2023-04-16T06:57:00;23.97;;;12.93;;
32292;SDS011;43233;48.608;8.838;2023-04-16T06:59:25;16.50;;;11.20;;
32292;SDS011;43233;48.608;8.838;2023-04-16T07:01:51;20.27;;;12.27;;
32292;SDS011;43233;48.608;8.838;2023-04-16T07:04:16;21.63;;;12.27;;
32292;SDS011;43233;48.608;8.838;2023-04-16T07:06:42;26.40;;;13.60;;
32292;SDS011;43233;48.608;8.838;2023-04-16T07:09:08;21.50;;;12.93;;
32292;SDS011;43233;48.608;8.838;2023-04-16T07:11:34;23.77;;;13.93;;
32292;SDS011;43233;48.608;8.838;2023-04-16T07:13:59;18.70;;;11.83;;
32292;SDS011;43233;48.608;8.838;2023-04-16T07:16:25;20.50;;;13.20;;
32292;SDS011;43233;48.608;8.838;2023-04-16T07:18:51;21.53;;;13.07;;
32292;SDS011;43233;48.608;8.838;2023-04-16T07:21:16;22.57;;;13.23;;
32292;SDS011;43233;48.608;8.838;2023-04-16T07:23:42;23.47;;;12.50;;
32292;SDS011;43233;48.608;8.838;2023-04-16T07:26:08;19.77;;;13.73;;
32292;SDS011;43233;48.608;8.838;2023-04-16T07:28:34;22.23;;;14.13;;
32292;SDS011;43233;48.608;8.838;2023-04-16T07:31:00;22.40;;;13.33;;
32292;SDS011;43233;48.608;8.838;2023-04-16T07:33:25;23.37;;;13.87;;
32292;SDS011;43233;48.608;8.838;2023-04-16T07:35:51;22.13;;;13.70;;
32292;SDS011;43233;48.608;8.838;2023-04-16T07:38:17;19.83;;;13.93;;
32292;SDS011;43233;48.608;8.838;2023-04-16T07:40:42;22.57;;;14.00;;
32292;SDS011;43233;48.608;8.838;2023-04-16T07:43:08;20.40;;;12.90;;
32292;SDS011;43233;48.608;8.838;2023-04-16T07:45:35;20.47;;;12.80;;
32292;SDS011;43233;48.608;8.838;2023-04-16T07:48:00;23.83;;;13.00;;
32292;SDS011;43233;48.608;8.838;2023-04-16T07:50:26;22.00;;;13.23;;
32292;SDS011;43233;48.608;8.838;2023-04-16T07:52:52;20.90;;;12.13;;
32292;SDS011;43233;48.608;8.838;2023-04-16T07:55:18;19.70;;;12.77;;
32292;SDS011;43233;48.608;8.838;2023-04-16T07:57:43;28.00;;;14.63;;
32292;SDS011;43233;48.608;8.838;2023-04-16T08:00:09;21.43;;;13.83;;
32292;SDS011;43233;48.608;8.838;2023-04-16T08:02:35;20.70;;;12.87;;
32292;SDS011;43233;48.608;8.838;2023-04-16T08:05:01;20.13;;;12.40;;
32292;SDS011;43233;48.608;8.838;2023-04-16T08:07:27;20.93;;;13.03;;
32292;SDS011;43233;48.608;8.838;2023-04-16T08:09:53;18.67;;;12.60;;
32292;SDS011;43233;48.608;8.838;2023-04-16T08:12:19;20.47;;;13.10;;
32292;SDS011;43233;48.608;8.838;2023-04-16T08:14:45;18.90;;;13.10;;
32292;SDS011;43233;48.608;8.838;2023-04-16T08:17:12;19.20;;;12.13;;
32292;SDS011;43233;48.608;8.838;2023-04-16T08:19:38;20.33;;;12.67;;
32292;SDS011;43233;48.608;8.838;2023-04-16T08:22:05;18.10;;;12.90;;
32292;SDS011;43233;48.608;8.838;2023-04-16T08:24:30;18.00;;;12.70;;
32292;SDS011;43233;48.608;8.838;2023-04-16T08:26:56;19.77;;;12.20;;
32292;SDS011;43233;48.608;8.838;2023-04-16T08:29:22;19.17;;;12.00;;
32292;SDS011;43233;48.608;8.838;2023-04-16T08:31:53;16.77;;;11.10;;
32292;SDS011;43233;48.608;8.838;2023-04-16T08:34:19;20.77;;;12.87;;
32292;SDS011;43233;48.608;8.838;2023-04-16T08:36:47;18.73;;;12.37;;
32292;SDS011;43233;48.608;8.838;2023-04-16T08:39:13;18.20;;;11.70;;
32292;SDS011;43233;48.608;8.838;2023-04-16T08:41:42;18.67;;;12.40;;
32292;SDS011;43233;48.608;8.838;2023-04-16T08:44:20;22.23;;;10.97;;
32292;SDS011;43233;48.608;8.838;2023-04-16T08:46:52;19.13;;;11.90;;
32292;SDS011;43233;48.608;8.838;2023-04-16T08:49:22;17.57;;;11.93;;
32292;SDS011;43233;48.608;8.838;2023-04-16T08:51:50;18.57;;;12.00;;
32292;SDS011;43233;48.608;8.838;2023-04-16T08:54:40;17.30;;;12.00;;
32292;SDS011;43233;48.608;8.838;2023-04-16T08:57:06;17.10;;;11.53;;
32292;SDS011;43233;48.608;8.838;2023-04-16T08:59:35;17.33;;;11.43;;
32292;SDS011;43233;48.608;8.838;2023-04-16T09:02:02;16.80;;;11.00;;
32292;SDS011;43233;48.608;8.838;2023-04-16T09:04:30;21.43;;;13.07;;
32292;SDS011;43233;48.608;8.838;2023-04-16T09:06:57;18.33;;;12.27;;
32292;SDS011;43233;48.608;8.838;2023-04-16T09:09:26;21.43;;;14.03;;
32292;SDS011;43233;48.608;8.838;2023-04-16T09:11:52;21.00;;;12.60;;
32292;SDS011;43233;48.608;8.838;2023-04-16T09:14:19;19.43;;;13.00;;
32292;SDS011;43233;48.608;8.838;2023-04-16T09:16:46;19.47;;;14.60;;
32292;SDS011;43233;48.608;8.838;2023-04-16T09:19:13;21.67;;;14.30;;
32292;SDS011;43233;48.608;8.838;2023-04-16T09:21:40;22.70;;;14.43;;
32292;SDS011;43233;48.608;8.838;2023-04-16T09:24:07;19.93;;;13.00;;
32292;SDS011;43233;48.608;8.838;2023-04-16T09:26:34;20.33;;;12.90;;
32292;SDS011;43233;48.608;8.838;2023-04-16T09:29:00;23.77;;;13.00;;
32292;SDS011;43233;48.608;8.838;2023-04-16T09:31:26;22.00;;;14.10;;
32292;SDS011;43233;48.608;8.838;2023-04-16T09:34:04;22.80;;;15.53;;
32292;SDS011;43233;48.608;8.838;2023-04-16T09:36:31;27.60;;;14.57;;
32292;SDS011;43233;48.608;8.838;2023-04-16T09:38:58;17.50;;;12.07;;
32292;SDS011;43233;48.608;8.838;2023-04-16T09:41:25;22.83;;;14.73;;
32292;SDS011;43233;48.608;8.838;2023-04-16T09:46:19;20.70;;;12.73;;
32292;SDS011;43233;48.608;8.838;2023-04-16T09:48:45;22.93;;;14.50;;
32292;SDS011;43233;48.608;8.838;2023-04-16T09:51:11;26.07;;;14.43;;
32292;SDS011;43233;48.608;8.838;2023-04-16T09:53:37;28.77;;;14.57;;
32292;SDS011;43233;48.608;8.838;2023-04-16T09:56:04;24.33;;;14.97;;
32292;SDS011;43233;48.608;8.838;2023-04-16T09:58:31;21.87;;;14.63;;
32292;SDS011;43233;48.608;8.838;2023-04-16T10:01:00;21.67;;;13.77;;
32292;SDS011;43233;48.608;8.838;2023-04-16T10:03:30;25.50;;;15.20;;
32292;SDS011;43233;48.608;8.838;2023-04-16T10:06:03;25.33;;;16.03;;
32292;SDS011;43233;48.608;8.838;2023-04-16T10:08:43;24.50;;;14.20;;
32292;SDS011;43233;48.608;8.838;2023-04-16T10:11:16;25.77;;;15.50;;
32292;SDS011;43233;48.608;8.838;2023-04-16T10:13:42;28.47;;;15.50;;
32292;SDS011;43233;48.608;8.838;2023-04-16T10:16:08;22.13;;;15.40;;
32292;SDS011;43233;48.608;8.838;2023-04-16T10:18:35;25.30;;;14.73;;
32292;SDS011;43233;48.608;8.838;2023-04-16T10:21:02;26.70;;;15.17;;
32292;SDS011;43233;48.608;8.838;2023-04-16T10:23:28;27.57;;;16.63;;
32292;SDS011;43233;48.608;8.838;2023-04-16T10:25:54;23.33;;;15.40;;
32292;SDS011;43233;48.608;8.838;2023-04-16T10:28:22;21.40;;;13.37;;
32292;SDS011;43233;48.608;8.838;2023-04-16T10:30:49;28.53;;;15.17;;
32292;SDS011;43233;48.608;8.838;2023-04-16T10:33:19;24.57;;;13.67;;
32292;SDS011;43233;48.608;8.838;2023-04-16T10:35:51;24.10;;;15.87;;
32292;SDS011;43233;48.608;8.838;2023-04-16T10:38:31;24.53;;;14.20;;
32292;SDS011;43233;48.608;8.838;2023-04-16T10:41:04;27.73;;;15.43;;
32292;SDS011;43233;48.608;8.838;2023-04-16T10:43:32;25.43;;;15.43;;
32292;SDS011;43233;48.608;8.838;2023-04-16T10:46:20;23.57;;;15.50;;
32292;SDS011;43233;48.608;8.838;2023-04-16T10:48:47;27.00;;;15.80;;
32292;SDS011;43233;48.608;8.838;2023-04-16T10:51:30;22.73;;;15.77;;
32292;SDS011;43233;48.608;8.838;2023-04-16T10:54:02;23.47;;;13.50;;
32292;SDS011;43233;48.608;8.838;2023-04-16T10:56:43;21.43;;;13.13;;
32292;SDS011;43233;48.608;8.838;2023-04-16T10:59:10;21.80;;;13.60;;
32292;SDS011;43233;48.608;8.838;2023-04-16T11:01:40;23.60;;;14.50;;
32292;SDS011;43233;48.608;8.838;2023-04-16T11:12:17;23.97;;;14.13;;
32292;SDS011;43233;48.608;8.838;2023-04-16T11:14:52;20.40;;;13.33;;
32292;SDS011;43233;48.608;8.838;2023-04-16T11:17:42;18.40;;;11.80;;
32292;SDS011;43233;48.608;8.838;2023-04-16T11:20:14;20.27;;;12.20;;
32292;SDS011;43233;48.608;8.838;2023-04-16T11:22:44;21.27;;;13.40;;
32292;SDS011;43233;48.608;8.838;2023-04-16T11:25:10;20.03;;;12.70;;
32292;SDS011;43233;48.608;8.838;2023-04-16T11:27:36;16.63;;;10.43;;
32292;SDS011;43233;48.608;8.838;2023-04-16T11:30:03;21.93;;;11.33;;
32292;SDS011;43233;48.608;8.838;2023-04-16T11:32:38;16.93;;;11.50;;
32292;SDS011;43233;48.608;8.838;2023-04-16T11:35:12;19.03;;;12.30;;
32292;SDS011;43233;48.608;8.838;2023-04-16T11:37:40;16.60;;;12.03;;
32292;SDS011;43233;48.608;8.838;2023-04-16T11:40:06;13.70;;;10.00;;
32292;SDS011;43233;48.608;8.838;2023-04-16T11:42:33;15.93;;;10.87;;
32292;SDS011;43233;48.608;8.838;2023-04-16T11:45:04;16.43;;;10.73;;
32292;SDS011;43233;48.608;8.838;2023-04-16T11:47:31;13.80;;;10.17;;
32292;SDS011;43233;48.608;8.838;2023-04-16T11:50:19;15.80;;;10.17;;
32292;SDS011;43233;48.608;8.838;2023-04-16T11:52:48;14.23;;;10.87;;
32292;SDS011;43233;48.608;8.838;2023-04-16T11:55:15;13.33;;;10.07;;
32292;SDS011;43233;48.608;8.838;2023-04-16T11:57:41;15.00;;;10.47;;
32292;SDS011;43233;48.608;8.838;2023-04-16T12:00:07;13.80;;;9.23;;
32292;SDS011;43233;48.608;8.838;2023-04-16T12:05:51;15.87;;;9.53;;
32292;SDS011;43233;48.608;8.838;2023-04-16T12:08:00;14.40;;;10.20;;
32292;SDS011;43233;48.608;8.838;2023-04-16T12:10:28;15.60;;;12.47;;
32292;SDS011;43233;48.608;8.838;2023-04-16T12:13:13;17.17;;;10.23;;
32292;SDS011;43233;48.608;8.838;2023-04-16T12:15:53;18.80;;;10.00;;
32292;SDS011;43233;48.608;8.838;2023-04-16T12:18:22;13.37;;;8.60;;
32292;SDS011;43233;48.608;8.838;2023-04-16T12:20:50;14.70;;;9.90;;
32292;SDS011;43233;48.608;8.838;2023-04-16T12:23:29;10.23;;;8.80;;
32292;SDS011;43233;48.608;8.838;2023-04-16T12:25:57;10.53;;;8.30;;
32292;SDS011;43233;48.608;8.838;2023-04-16T12:28:34;11.13;;;8.70;;
32292;SDS011;43233;48.608;8.838;2023-04-16T12:31:02;11.43;;;8.13;;
32292;SDS011;43233;48.608;8.838;2023-04-16T12:33:29;11.40;;;8.57;;
32292;SDS011;43233;48.608;8.838;2023-04-16T12:35:55;10.27;;;7.93;;
32292;SDS011;43233;48.608;8.838;2023-04-16T12:38:21;10.90;;;6.83;;
32292;SDS011;43233;48.608;8.838;2023-04-16T12:40:47;8.23;;;6.47;;
32292;SDS011;43233;48.608;8.838;2023-04-16T12:43:12;10.53;;;6.27;;
32292;SDS011;43233;48.608;8.838;2023-04-16T12:45:38;8.10;;;6.40;;
32292;SDS011;43233;48.608;8.838;2023-04-16T12:48:04;8.97;;;6.63;;
32292;SDS011;43233;48.608;8.838;2023-04-16T12:50:30;6.80;;;5.67;;
32292;SDS011;43233;48.608;8.838;2023-04-16T12:52:56;10.30;;;6.60;;
32292;SDS011;43233;48.608;8.838;2023-04-16T12:55:22;6.40;;;5.60;;
32292;SDS011;43233;48.608;8.838;2023-04-16T12:57:49;9.33;;;5.50;;
32292;SDS011;43233;48.608;8.838;2023-04-16T13:00:16;5.77;;;4.80;;
32292;SDS011;43233;48.608;8.838;2023-04-16T13:02:43;6.77;;;5.40;;
32292;SDS011;43233;48.608;8.838;2023-04-16T13:05:08;6.80;;;5.40;;
32292;SDS011;43233;48.608;8.838;2023-04-16T13:07:34;6.60;;;5.83;;
32292;SDS011;43233;48.608;8.838;2023-04-16T13:10:00;6.20;;;5.40;;
32292;SDS011;43233;48.608;8.838;2023-04-16T13:12:25;5.50;;;4.10;;
32292;SDS011;43233;48.608;8.838;2023-04-16T13:14:51;3.90;;;3.60;;
32292;SDS011;43233;48.608;8.838;2023-04-16T13:17:17;4.67;;;4.27;;
32292;SDS011;43233;48.608;8.838;2023-04-16T13:19:43;5.80;;;4.77;;
32292;SDS011;43233;48.608;8.838;2023-04-16T13:22:09;12.47;;;8.03;;
32292;SDS011;43233;48.608;8.838;2023-04-16T13:24:35;4.00;;;3.60;;
32292;SDS011;43233;48.608;8.838;2023-04-16T13:27:01;8.03;;;4.37;;
32292;SDS011;43233;48.608;8.838;2023-04-16T13:29:27;3.37;;;2.93;;
32292;SDS011;43233;48.608;8.838;2023-04-16T13:31:53;3.97;;;3.60;;
32292;SDS011;43233;48.608;8.838;2023-04-16T13:34:19;3.90;;;3.50;;
32292;SDS011;43233;48.608;8.838;2023-04-16T13:36:45;3.90;;;3.50;;
32292;SDS011;43233;48.608;8.838;2023-04-16T13:39:11;3.00;;;2.80;;
32292;SDS011;43233;48.608;8.838;2023-04-16T13:41:37;2.90;;;2.70;;
32292;SDS011;43233;48.608;8.838;2023-04-16T13:44:03;2.70;;;2.50;;
32292;SDS011;43233;48.608;8.838;2023-04-16T13:46:29;2.70;;;2.50;;
32292;SDS011;43233;48.608;8.838;2023-04-16T13:48:55;2.90;;;2.70;;
32292;SDS011;43233;48.608;8.838;2023-04-16T13:51:21;3.10;;;2.77;;
32292;SDS011;43233;48.608;8.838;2023-04-16T13:53:47;3.03;;;2.70;;
32292;SDS011;43233;48.608;8.838;2023-04-16T13:56:13;3.10;;;2.90;;
32292;SDS011;43233;48.608;8.838;2023-04-16T13:58:39;3.13;;;2.93;;
32292;SDS011;43233;48.608;8.838;2023-04-16T14:01:05;6.70;;;5.30;;
32292;SDS011;43233;48.608;8.838;2023-04-16T14:03:31;6.73;;;5.20;;
32292;SDS011;43233;48.608;8.838;2023-04-16T14:06:02;5.53;;;3.80;;
32292;SDS011;43233;48.608;8.838;2023-04-16T14:08:28;3.70;;;3.40;;
32292;SDS011;43233;48.608;8.838;2023-04-16T14:10:54;4.87;;;4.37;;
32292;SDS011;43233;48.608;8.838;2023-04-16T14:13:20;3.13;;;2.90;;
32292;SDS011;43233;48.608;8.838;2023-04-16T14:15:46;3.27;;;2.70;;
32292;SDS011;43233;48.608;8.838;2023-04-16T14:18:12;3.27;;;2.93;;
32292;SDS011;43233;48.608;8.838;2023-04-16T14:20:37;3.00;;;2.80;;
32292;SDS011;43233;48.608;8.838;2023-04-16T14:23:04;3.33;;;3.00;;
32292;SDS011;43233;48.608;8.838;2023-04-16T14:25:30;3.43;;;2.83;;
32292;SDS011;43233;48.608;8.838;2023-04-16T14:27:57;3.20;;;3.00;;
32292;SDS011;43233;48.608;8.838;2023-04-16T14:30:23;2.80;;;2.40;;
32292;SDS011;43233;48.608;8.838;2023-04-16T14:32:49;4.30;;;3.40;;
32292;SDS011;43233;48.608;8.838;2023-04-16T14:35:15;2.93;;;2.73;;
32292;SDS011;43233;48.608;8.838;2023-04-16T14:37:41;3.20;;;3.00;;
32292;SDS011;43233;48.608;8.838;2023-04-16T14:40:06;3.13;;;2.83;;
32292;SDS011;43233;48.608;8.838;2023-04-16T14:42:34;2.80;;;2.60;;
32292;SDS011;43233;48.608;8.838;2023-04-16T14:45:03;2.90;;;2.60;;
32292;SDS011;43233;48.608;8.838;2023-04-16T14:47:32;2.77;;;2.57;;